createdAt,value
2023-04-16T00:02:43.832Z,86.32
2023-04-16T00:05:47.533Z,86.73
2023-04-16T00:08:49.617Z,86.90
2023-04-16T00:11:52.136Z,87.12
2023-04-16T00:14:54.346Z,87.22
2023-04-16T00:17:57.098Z,87.23
2023-04-16T00:20:59.868Z,87.22
2023-04-16T00:24:02.234Z,87.57
2023-04-16T00:27:04.787Z,87.19
2023-04-16T00:30:08.777Z,87.18
2023-04-16T00:33:11.234Z,87.28
2023-04-16T00:36:13.894Z,87.58
2023-04-16T00:39:16.163Z,87.06
2023-04-16T00:42:18.856Z,86.67
2023-04-16T00:45:21.350Z,86.79
2023-04-16T00:48:24.302Z,86.66
2023-04-16T00:51:27.237Z,85.94
2023-04-16T00:54:33.021Z,85.95
2023-04-16T00:57:35.087Z,86.20
2023-04-16T01:00:37.899Z,85.67
2023-04-16T01:03:48.763Z,86.13
2023-04-16T01:06:51.824Z,86.21
2023-04-16T01:09:54.200Z,85.23
2023-04-16T01:12:57.111Z,85.78
2023-04-16T01:16:00.501Z,86.28
2023-04-16T01:19:03.056Z,85.96
2023-04-16T01:22:06.421Z,85.54
2023-04-16T01:25:09.674Z,85.73
2023-04-16T01:28:12.142Z,85.49
2023-04-16T01:31:14.953Z,86.09
2023-04-16T01:34:30.677Z,86.23
2023-04-16T01:37:34.338Z,86.24
2023-04-16T01:40:38.226Z,86.41
2023-04-16T01:43:42.469Z,86.26
2023-04-16T01:46:45.628Z,85.83
2023-04-16T01:49:48.545Z,85.98
2023-04-16T01:52:51.155Z,86.19
2023-04-16T01:55:54.049Z,86.15
2023-04-16T01:58:56.415Z,85.82
2023-04-16T02:02:13.892Z,86.35
2023-04-16T02:05:16.306Z,86.12
2023-04-16T02:08:18.947Z,86.43
2023-04-16T02:11:22.737Z,86.63
2023-04-16T02:14:26.960Z,86.45
2023-04-16T02:17:29.217Z,86.70
2023-04-16T02:20:47.134Z,87.01
2023-04-16T02:23:52.103Z,87.14
2023-04-16T02:26:59.743Z,87.19
2023-04-16T02:30:03.025Z,87.27
2023-04-16T02:33:10.466Z,86.98
2023-04-16T02:36:14.881Z,86.81
2023-04-16T02:39:17.408Z,86.87
2023-04-16T02:42:19.545Z,87.45
2023-04-16T02:45:22.935Z,87.12
2023-04-16T02:48:25.822Z,86.91
2023-04-16T02:51:29.684Z,87.07
2023-04-16T02:54:31.796Z,87.19
2023-04-16T02:57:34.753Z,87.22
2023-04-16T03:00:38.443Z,87.45
2023-04-16T03:03:41.548Z,87.33
2023-04-16T03:06:43.850Z,87.27
2023-04-16T03:09:46.685Z,87.03
2023-04-16T03:12:48.983Z,87.17
2023-04-16T03:15:51.550Z,87.12
2023-04-16T03:18:53.758Z,87.28
2023-04-16T03:21:56.521Z,87.68
2023-04-16T03:24:58.888Z,88.12
2023-04-16T03:28:03.657Z,87.83
2023-04-16T03:31:06.473Z,87.94
2023-04-16T03:34:11.513Z,87.48
2023-04-16T03:37:15.737Z,87.25
2023-04-16T03:40:18.370Z,87.33
2023-04-16T03:43:21.165Z,87.57
2023-04-16T03:46:23.847Z,88.10
2023-04-16T03:49:26.607Z,88.05
2023-04-16T03:52:29.386Z,87.73
2023-04-16T03:55:32.179Z,88.00
2023-04-16T03:58:34.971Z,87.99
2023-04-16T04:01:37.428Z,88.04
2023-04-16T04:04:41.295Z,88.09
2023-04-16T04:07:45.773Z,88.43
2023-04-16T04:10:51.307Z,88.16
2023-04-16T04:13:54.471Z,88.43
2023-04-16T04:16:57.659Z,88.36
2023-04-16T04:20:01.686Z,88.23
2023-04-16T04:23:06.448Z,88.23
2023-04-16T04:26:09.464Z,87.95
2023-04-16T04:29:12.187Z,88.20
2023-04-16T04:32:15.014Z,88.05
2023-04-16T04:35:17.963Z,87.76
2023-04-16T04:38:22.602Z,87.98
2023-04-16T04:41:27.407Z,87.71
2023-04-16T04:44:29.662Z,87.72
2023-04-16T04:47:32.887Z,87.47
2023-04-16T04:50:35.249Z,88.24
2023-04-16T04:53:38.478Z,88.54
2023-04-16T04:56:41.251Z,88.24
2023-04-16T04:59:44.090Z,87.83
2023-04-16T05:02:48.223Z,88.03
2023-04-16T05:05:51.028Z,88.31
2023-04-16T05:08:53.247Z,88.26
2023-04-16T05:11:56.120Z,88.79
2023-04-16T05:14:58.372Z,88.57
2023-04-16T05:18:00.915Z,88.20
2023-04-16T05:21:03.219Z,88.33
2023-04-16T05:24:06.523Z,88.24
2023-04-16T05:27:08.621Z,87.79
2023-04-16T05:30:11.902Z,87.13
2023-04-16T05:33:15.865Z,87.26
2023-04-16T05:36:18.633Z,87.33
2023-04-16T05:39:21.416Z,87.86
2023-04-16T05:42:24.019Z,87.68
2023-04-16T05:45:27.959Z,87.99
2023-04-16T05:48:31.154Z,87.87
2023-04-16T05:51:33.772Z,87.09
2023-04-16T05:54:36.132Z,86.73
2023-04-16T05:57:38.261Z,86.49
2023-04-16T06:00:41.265Z,85.94
2023-04-16T06:03:43.637Z,86.51
2023-04-16T06:06:46.763Z,86.30
2023-04-16T06:09:48.756Z,86.47
2023-04-16T06:12:51.616Z,85.79
2023-04-16T06:15:53.811Z,86.09
2023-04-16T06:18:56.354Z,85.80
2023-04-16T06:21:58.581Z,85.77
2023-04-16T06:25:01.348Z,85.42
2023-04-16T06:28:03.705Z,86.03
2023-04-16T06:31:06.522Z,86.41
2023-04-16T06:34:09.252Z,86.43
2023-04-16T06:37:12.136Z,86.82
2023-04-16T06:40:14.506Z,86.89
2023-04-16T06:43:18.217Z,87.06
2023-04-16T06:46:20.746Z,87.22
2023-04-16T06:49:23.372Z,87.38
2023-04-16T06:52:25.880Z,87.02
2023-04-16T06:55:28.515Z,87.19
2023-04-16T06:58:30.833Z,87.33
2023-04-16T07:01:34.786Z,87.21
2023-04-16T07:04:36.918Z,86.83
2023-04-16T07:07:39.370Z,87.32
2023-04-16T07:10:41.561Z,87.51
2023-04-16T07:13:44.037Z,87.41
2023-04-16T07:16:46.333Z,87.15
2023-04-16T07:19:49.177Z,86.81
2023-04-16T07:22:51.278Z,86.58
2023-04-16T07:25:53.810Z,87.53
2023-04-16T07:28:56.204Z,88.09
2023-04-16T07:31:58.869Z,88.24
2023-04-16T07:35:01.009Z,87.44
2023-04-16T07:38:03.262Z,87.50
2023-04-16T07:41:05.957Z,87.66
2023-04-16T07:44:11.227Z,87.91
2023-04-16T07:47:13.845Z,88.11
2023-04-16T07:50:16.709Z,87.90
2023-04-16T07:53:18.775Z,87.82
2023-04-16T07:56:21.962Z,87.40
2023-04-16T07:59:24.735Z,86.84
2023-04-16T08:02:27.723Z,87.05
2023-04-16T08:05:29.903Z,86.75
2023-04-16T08:08:32.472Z,86.59
2023-04-16T08:11:34.625Z,86.28
2023-04-16T08:14:37.526Z,86.93
2023-04-16T08:17:39.839Z,87.00
2023-04-16T08:20:43.120Z,87.44
2023-04-16T08:23:45.345Z,86.83
2023-04-16T08:26:48.175Z,86.55
2023-04-16T08:29:50.299Z,86.83
2023-04-16T08:32:53.963Z,86.96
2023-04-16T08:35:56.059Z,86.06
2023-04-16T08:38:58.923Z,86.01
2023-04-16T08:42:06.258Z,86.03
2023-04-16T08:45:15.998Z,86.43
2023-04-16T08:48:22.119Z,86.25
2023-04-16T08:51:27.674Z,85.93
2023-04-16T08:54:37.760Z,85.77
2023-04-16T08:57:47.605Z,85.79
2023-04-16T09:00:50.812Z,86.09
2023-04-16T09:03:54.386Z,86.01
2023-04-16T09:06:59.701Z,85.45
2023-04-16T09:10:03.663Z,85.82
2023-04-16T09:13:06.280Z,84.82
2023-04-16T09:16:09.806Z,84.78
2023-04-16T09:19:12.516Z,85.40
2023-04-16T09:22:15.324Z,86.05
2023-04-16T09:25:17.618Z,86.27
2023-04-16T09:28:39.430Z,86.36
2023-04-16T09:31:41.943Z,85.91
2023-04-16T09:35:01.426Z,86.03
2023-04-16T09:38:04.426Z,85.80
2023-04-16T09:41:10.545Z,84.96
2023-04-16T09:44:12.685Z,83.71
2023-04-16T09:47:15.367Z,82.41
2023-04-16T09:50:19.748Z,83.01
2023-04-16T09:53:29.261Z,83.80
2023-04-16T09:56:31.525Z,83.97
2023-04-16T09:59:36.203Z,82.95
2023-04-16T10:02:42.200Z,82.13
2023-04-16T10:05:45.454Z,83.16
2023-04-16T10:08:53.251Z,83.77
2023-04-16T10:11:55.858Z,82.56
2023-04-16T10:14:58.091Z,81.94
2023-04-16T10:18:01.058Z,80.69
2023-04-16T10:21:03.652Z,81.26
2023-04-16T10:24:06.770Z,81.89
2023-04-16T10:27:09.007Z,83.12
2023-04-16T10:30:13.339Z,82.37
2023-04-16T10:33:15.462Z,83.31
2023-04-16T10:36:23.859Z,83.84
2023-04-16T10:39:29.708Z,84.24
2023-04-16T10:42:32.408Z,84.48
2023-04-16T10:45:38.989Z,84.29
2023-04-16T10:48:49.625Z,82.83
2023-04-16T10:51:55.742Z,81.64
2023-04-16T10:54:59.688Z,81.82
2023-04-16T10:58:01.967Z,82.56
2023-04-16T11:01:12.616Z,82.98
2023-04-16T11:04:21.047Z,83.16
2023-04-16T11:07:35.377Z,82.99
2023-04-16T11:10:39.761Z,82.44
2023-04-16T11:13:43.615Z,83.61
2023-04-16T11:16:45.964Z,84.10
2023-04-16T11:19:49.036Z,84.05
2023-04-16T11:22:53.007Z,83.96
2023-04-16T11:25:58.723Z,83.36
2023-04-16T11:29:01.273Z,83.03
2023-04-16T11:32:03.804Z,83.08
2023-04-16T11:35:17.352Z,83.20
2023-04-16T11:38:19.848Z,83.11
2023-04-16T11:41:22.314Z,83.13
2023-04-16T11:44:27.437Z,83.03
2023-04-16T11:47:31.883Z,83.64
2023-04-16T11:50:35.487Z,83.17
2023-04-16T11:53:46.612Z,83.01
2023-04-16T11:56:51.080Z,83.25
2023-04-16T12:00:01.405Z,82.78
2023-04-16T12:03:15.461Z,82.51
2023-04-16T12:06:18.241Z,82.53
2023-04-16T12:09:27.955Z,82.42
2023-04-16T12:12:32.516Z,82.38
2023-04-16T12:15:46.217Z,81.44
2023-04-16T12:19:04.074Z,81.28
2023-04-16T12:22:06.880Z,81.28
2023-04-16T12:25:14.610Z,79.71
2023-04-16T12:28:42.399Z,79.81
2023-04-16T12:31:45.713Z,79.66
2023-04-16T12:34:57.487Z,78.92
2023-04-16T12:38:00.467Z,79.72
2023-04-16T12:41:03.554Z,79.88
2023-04-16T12:44:14.124Z,80.20
2023-04-16T12:47:16.637Z,80.43
2023-04-16T12:50:19.440Z,80.66
2023-04-16T12:53:22.054Z,80.60
2023-04-16T12:56:24.285Z,79.94
2023-04-16T12:59:27.131Z,79.69
2023-04-16T13:02:29.948Z,78.24
2023-04-16T13:05:32.855Z,79.55
2023-04-16T13:08:35.206Z,80.53
2023-04-16T13:11:37.719Z,80.42
2023-04-16T13:14:42.772Z,80.69
2023-04-16T13:17:48.588Z,81.11
2023-04-16T13:20:50.923Z,81.03
2023-04-16T13:23:54.291Z,80.92
2023-04-16T13:26:56.742Z,81.24
2023-04-16T13:29:59.468Z,80.99
2023-04-16T13:33:01.817Z,80.36
2023-04-16T13:36:04.895Z,80.10
2023-04-16T13:39:11.600Z,79.84
2023-04-16T13:42:14.404Z,80.02
2023-04-16T13:45:16.640Z,80.11
2023-04-16T13:48:19.244Z,79.93
2023-04-16T13:51:23.066Z,80.22
2023-04-16T13:54:25.745Z,80.33
2023-04-16T13:57:28.996Z,79.71
2023-04-16T14:00:32.189Z,79.96
2023-04-16T14:03:38.775Z,79.78
2023-04-16T14:06:41.556Z,80.31
2023-04-16T14:09:43.949Z,79.95
2023-04-16T14:12:50.919Z,80.10
2023-04-16T14:15:57.445Z,79.62
2023-04-16T14:19:00.229Z,79.46
2023-04-16T14:22:02.780Z,79.31
2023-04-16T14:25:06.363Z,79.73
2023-04-16T14:28:09.563Z,79.70
2023-04-16T14:31:12.574Z,79.80
2023-04-16T14:34:15.006Z,79.55
2023-04-16T14:37:18.415Z,79.84
2023-04-16T14:40:20.750Z,79.89
2023-04-16T14:43:23.456Z,79.57
2023-04-16T14:46:27.330Z,79.53
2023-04-16T14:49:29.811Z,78.85
2023-04-16T14:52:32.643Z,78.87
2023-04-16T14:55:35.274Z,78.66
2023-04-16T14:58:39.311Z,79.10
2023-04-16T15:01:43.293Z,78.38
2023-04-16T15:04:45.911Z,78.70
2023-04-16T15:07:48.657Z,77.48
2023-04-16T15:10:52.032Z,76.67
2023-04-16T15:13:55.133Z,75.97
2023-04-16T15:16:57.872Z,75.32
2023-04-16T15:20:00.848Z,75.27
2023-04-16T15:23:03.557Z,76.99
2023-04-16T15:26:06.696Z,76.95
2023-04-16T15:29:08.772Z,76.84
2023-04-16T15:32:11.912Z,75.43
2023-04-16T15:35:14.901Z,75.04
2023-04-16T15:38:17.946Z,75.73
2023-04-16T15:41:20.565Z,76.16
2023-04-16T15:44:23.471Z,76.01
2023-04-16T15:47:25.678Z,76.67
2023-04-16T15:50:28.222Z,77.11
2023-04-16T15:53:30.620Z,76.44
2023-04-16T15:56:34.201Z,77.05
2023-04-16T16:14:37.020Z,75.15
2023-04-16T16:17:42.576Z,74.69
2023-04-16T16:20:44.941Z,74.37
2023-04-16T16:23:47.987Z,74.40
2023-04-16T16:26:50.324Z,75.55
2023-04-16T16:29:53.218Z,77.03
2023-04-16T16:32:58.096Z,76.65
2023-04-16T16:36:00.906Z,76.90
2023-04-16T16:39:04.318Z,76.48
2023-04-16T16:42:09.241Z,75.84
2023-04-16T16:45:11.824Z,75.38
2023-04-16T16:48:14.548Z,76.83
2023-04-16T16:51:19.612Z,77.27
2023-04-16T16:54:22.724Z,77.90
2023-04-16T16:57:25.158Z,77.91
2023-04-16T17:00:27.919Z,77.67
2023-04-16T17:03:30.218Z,79.37
2023-04-16T17:06:33.553Z,79.72
2023-04-16T17:09:38.892Z,78.38
2023-04-16T17:12:41.889Z,79.14
2023-04-16T17:15:44.489Z,79.47
2023-04-16T17:18:47.572Z,79.92
2023-04-16T17:21:50.825Z,81.03
2023-04-16T17:24:54.677Z,80.94
2023-04-16T17:27:56.794Z,80.08
2023-04-16T17:30:59.664Z,79.64
2023-04-16T17:34:05.101Z,79.80
2023-04-16T17:37:07.552Z,80.72
2023-04-16T17:40:10.597Z,80.64
2023-04-16T17:43:13.620Z,80.92
2023-04-16T17:46:15.895Z,80.73
2023-04-16T17:49:18.858Z,80.13
2023-04-16T17:52:21.808Z,80.36
2023-04-16T17:55:24.592Z,81.54
2023-04-16T17:58:26.702Z,81.67
2023-04-16T18:01:29.076Z,81.58
2023-04-16T18:04:31.465Z,80.86
2023-04-16T18:07:35.660Z,80.52
2023-04-16T18:10:38.807Z,79.94
2023-04-16T18:13:43.973Z,78.62
2023-04-16T18:16:49.586Z,78.85
2023-04-16T18:19:52.279Z,79.44
2023-04-16T18:22:54.491Z,79.53
2023-04-16T18:25:57.829Z,80.04
2023-04-16T18:29:00.397Z,78.87
2023-04-16T18:32:04.721Z,79.17
2023-04-16T18:35:08.282Z,79.60
2023-04-16T18:38:11.187Z,79.87
2023-04-16T18:41:20.552Z,78.25
2023-04-16T18:44:24.442Z,78.88
2023-04-16T18:47:26.585Z,78.18
2023-04-16T18:50:29.159Z,78.20
2023-04-16T18:53:31.589Z,79.57
2023-04-16T18:56:34.368Z,80.31
2023-04-16T18:59:36.653Z,79.57
2023-04-16T19:02:40.445Z,78.52
2023-04-16T19:05:42.691Z,79.35
2023-04-16T19:08:45.432Z,78.85
2023-04-16T19:11:49.550Z,79.03
2023-04-16T19:14:54.092Z,78.30
2023-04-16T19:17:56.641Z,79.01
2023-04-16T19:21:02.130Z,79.03
2023-04-16T19:24:04.791Z,79.16
2023-04-16T19:27:07.817Z,77.80
2023-04-16T19:30:10.909Z,78.44
2023-04-16T19:33:13.698Z,77.40
2023-04-16T19:36:15.948Z,75.94
2023-04-16T19:39:18.462Z,75.96
2023-04-16T19:42:21.115Z,76.18
2023-04-16T19:45:26.115Z,77.13
2023-04-16T19:48:28.329Z,79.25
2023-04-16T19:51:31.427Z,78.97
2023-04-16T19:54:35.387Z,79.92
2023-04-16T19:57:38.052Z,79.51
2023-04-16T20:00:43.769Z,79.42
2023-04-16T20:03:46.280Z,78.15
2023-04-16T20:06:48.532Z,78.37
2023-04-16T20:09:51.187Z,77.01
2023-04-16T20:12:53.530Z,78.23
2023-04-16T20:15:56.467Z,77.62
2023-04-16T20:19:03.638Z,76.63
2023-04-16T20:22:07.588Z,77.11
2023-04-16T20:25:10.553Z,77.05
2023-04-16T20:28:16.721Z,77.46
2023-04-16T20:31:19.080Z,77.54
2023-04-16T20:34:21.775Z,77.14
2023-04-16T20:37:24.014Z,76.50
2023-04-16T20:40:32.961Z,76.49
2023-04-16T20:43:38.845Z,78.70
2023-04-16T20:46:42.490Z,79.74
2023-04-16T20:49:49.796Z,80.29
2023-04-16T20:52:52.689Z,79.48
2023-04-16T20:55:55.451Z,78.98
2023-04-16T20:58:59.538Z,76.51
2023-04-16T21:02:01.807Z,74.98
2023-04-16T21:05:05.674Z,75.84
2023-04-16T21:08:08.214Z,75.69
2023-04-16T21:11:11.307Z,75.21
2023-04-16T21:14:14.191Z,75.25
2023-04-16T21:21:34.429Z,75.66
2023-04-16T21:25:18.192Z,75.57
2023-04-16T21:28:27.082Z,73.74
2023-04-16T21:36:46.445Z,74.78
2023-04-16T21:39:48.817Z,76.14
2023-04-16T21:42:52.487Z,76.29
2023-04-16T21:45:55.316Z,76.29
2023-04-16T21:48:57.449Z,75.11
2023-04-16T21:52:02.561Z,74.52
2023-04-16T21:55:05.170Z,76.06
2023-04-16T21:58:07.751Z,76.66
2023-04-16T22:01:11.061Z,75.97
2023-04-16T22:04:14.440Z,73.57
2023-04-16T22:07:17.116Z,73.41
2023-04-16T22:10:19.937Z,72.10
2023-04-16T22:13:22.951Z,70.77
2023-04-16T22:16:26.007Z,69.67
2023-04-16T22:19:28.537Z,68.47
2023-04-16T22:22:31.275Z,69.15
2023-04-16T22:25:33.862Z,68.16
2023-04-16T22:28:36.391Z,67.14
2023-04-16T22:31:39.085Z,68.72
2023-04-16T22:34:41.902Z,69.84
2023-04-16T22:37:43.953Z,70.60
2023-04-16T22:40:49.600Z,69.51
2023-04-16T22:43:52.555Z,69.36
2023-04-16T22:46:55.397Z,70.60
2023-04-16T22:49:57.609Z,72.45
2023-04-16T22:53:00.529Z,72.15
2023-04-16T22:56:02.787Z,69.60
2023-04-16T22:59:08.632Z,71.74
2023-04-16T23:02:11.054Z,70.54
2023-04-16T23:05:13.553Z,68.38
2023-04-16T23:08:15.718Z,69.72
2023-04-16T23:11:18.588Z,71.78
2023-04-16T23:14:21.554Z,72.91
2023-04-16T23:17:24.483Z,74.90
2023-04-16T23:20:26.508Z,71.30
2023-04-16T23:23:29.112Z,70.44
2023-04-16T23:26:37.997Z,73.07
2023-04-16T23:29:40.515Z,72.92
2023-04-16T23:32:42.729Z,72.01
2023-04-16T23:35:47.562Z,74.36
2023-04-16T23:38:49.984Z,75.40
2023-04-16T23:41:52.861Z,75.70
2023-04-16T23:44:55.097Z,73.60
2023-04-16T23:47:58.082Z,72.56
2023-04-16T23:51:00.837Z,71.00
2023-04-16T23:54:03.331Z,70.21
2023-04-16T23:57:05.456Z,69.69
